Detall de PIREP

Printer-friendly versionPDF version

[2016/09/08 12:47:00]
Flight IATA:CT0003
Pilot Number:012
Company ICAO:CAT
Aircraft Type:B738/F
PAX:160
Departing Airport: LIEA
Destination Airport: LICJ
Alternate Airport:LIRN
Online: VATSIM
Route:SODIO UM732 CAR UQ152 GIANO
Flight Level:F210
No Slew and time accel
No pause
Crash detect
Detect pilot in Cockpit between each 30 and 45 minutes
12:47 Zero fuel Weight: 122136 Lbs, Fuel Weight: 15604 Lbs
12:47 VATSIM:LIEA 081620Z 01009KT 330V040 9999 FEW045 27/14 Q1012
12:47 VATSIM:LICJ 081620Z 36013KT 9999 SCT030 25/17 Q1012
12:47 PROVA AMB CAT PLANES NOU
12:47 Parking Brakes off
12:52 Take-off
12:52 Take off Weight: 137192 Lbs
12:52 Wind: 342º @ 009 Knots Heading: 023º
12:52 POS N40º 37´ 59´´ E008º 17´ 29´´
12:52 Gear Up: 159 Knots
12:52 Flaps:3 at 159 Knots
12:52 Flaps:2 at 188 Knots
12:52 Flaps:1 at 192 Knots
12:56 Flaps:0 at 227 Knots
13:01 TOC
13:01 Fuel Weight: 12795 Lb
13:07 Wind:350º@029 Knots Heading: 146º Ground Speed: 452 Knots Altitude 20918 ft
13:22 Wind:337º@026 Knots Heading: 092º Ground Speed: 435 Knots Altitude 20938 ft
13:32 TOD
13:32 Fuel Weight: 9432 Lb
13:37 Wind:322º@019 Knots Heading: 072º Ground Speed: 360 Knots Altitude 11286 ft
13:39 Flaps:1 at 258 Knots
13:39 Flaps:2 at 236 Knots
13:39 Flaps:3 at 218 Knots
13:42 Flaps:4 at 215 Knots
13:43 Gear Down: 178 Knots
13:44 Flaps:5 at 174 Knots
13:44 Flaps:6 at 169 Knots
13:45 Flaps:7 at 154 Knots
13:46 Flaps:8 at 151 Knots
13:49 TouchDown:Rate -208 ft/min Speed: 122 Knots
13:50 VATSIM:LICJ 081720Z 01011KT 9999 SCT035 24/17 Q1011
13:50 Land
13:50 Wind:357º@011 Knots
13:50 Heading: 247º
13:50 Flight Duration: 00:58
13:50 Landing Weight: 130289 Lbs
13:50 POS N38º 10´ 44´´ E013º 06´ 01´´
13:53 Parking brakes on
13:53 Block to Block Duration: 01:06
13:53 Final Fuel: 7854 Lbls
13:53 Spent Fuel: 7749 Lbls
13:53 Flight Length: 354 NM
13:53 TOD Land Length: 77 NM

Exportar CSV

Powered by Drupal - Modified by Danger4k